Huvudsida
METAR-TAF:

METAR-TAF

Flygplatser :

Agri-Science Center

Chillicothe, Missouri, USA

latitud: 39-49N, longitud: 093-35W, höjd: 234 m

Aktuellt väderrapport

Denna rapport gjordes för 23 minuter sedan, klockan 12:52 UTC
Vind 6 kt från nord
Temperatur 1°C
Fuktighet 80%
Tryck 1014 hPa

METAR: KCDJ 251252Z AUTO 36006KT 01/M02 A2993 RMK AO1 SLP147 T00061017

Tid: 07:15 (13:15 UTC)


TAF: saknas

Aktuella väderrapporter och prognoser från 4000 flygplatser (METAR- och TAF-rapporter).

De tillgängliga stationerna syns som gula och röda prickar på kartan.

För musen över prickarna för att se namnen på stationerna.

Klicka sedan för att få väderrapporter och prognoser.

För att ändra kartan: Klicka på de gröna knapparna med ett svart kors på för att zooma in; den gröna knappen med ett streck på för att zooma ut; eller på de gröna pilarna för angränsande kartor.


METAR-TAF: